createdAt,value
2023-04-04T00:00:55.676Z,102849.34
2023-04-04T00:03:59.117Z,102849.38
2023-04-04T00:07:03.188Z,102847.81
2023-04-04T00:10:06.379Z,102846.94
2023-04-04T00:13:09.598Z,102838.78
2023-04-04T00:16:12.259Z,102832.69
2023-04-04T00:19:18.117Z,102824.81
2023-04-04T00:22:22.204Z,102831.75
2023-04-04T00:25:25.206Z,102833.16
2023-04-04T00:28:27.800Z,102828.63
2023-04-04T00:31:30.499Z,102820.72
2023-04-04T00:34:33.172Z,102813.03
2023-04-04T00:37:37.161Z,102809.44
2023-04-04T00:40:43.331Z,102810.34
2023-04-04T00:43:46.280Z,102807.72
2023-04-04T00:46:48.909Z,102802.47
2023-04-04T00:49:52.418Z,102801.47
2023-04-04T00:52:56.921Z,102803.06
2023-04-04T00:55:59.724Z,102800.03
2023-04-04T00:59:02.401Z,102800.94
2023-04-04T01:02:05.193Z,102795.34
2023-04-04T01:05:08.907Z,102796.16
2023-04-04T01:08:13.061Z,102797.97
2023-04-04T01:11:16.622Z,102802.22
2023-04-04T01:14:19.267Z,102793.47
2023-04-04T01:17:22.623Z,102796.75
2023-04-04T01:20:27.464Z,102786.47
2023-04-04T01:23:37.487Z,102794.63
2023-04-04T01:26:41.877Z,102791.66
2023-04-04T01:29:44.543Z,102787.13
2023-04-04T01:32:54.082Z,102782.13
2023-04-04T01:36:04.507Z,102779.28
2023-04-04T01:39:16.259Z,102775.69
2023-04-04T01:42:21.255Z,102764.06
2023-04-04T01:45:24.852Z,102764.13
2023-04-04T01:48:27.753Z,102755.56
2023-04-04T01:51:31.808Z,102760.81
2023-04-04T01:54:35.996Z,102762.31
2023-04-04T01:57:39.944Z,102763.53
2023-04-04T02:00:42.844Z,102765.41
2023-04-04T02:03:45.510Z,102766.03
2023-04-04T02:06:48.822Z,102754.38
2023-04-04T02:09:51.525Z,102752.41
2023-04-04T02:12:55.479Z,102745.69
2023-04-04T02:15:58.230Z,102734.25
2023-04-04T02:19:01.143Z,102731.25
2023-04-04T02:22:03.750Z,102734.34
2023-04-04T02:25:06.912Z,102738.78
2023-04-04T02:28:11.438Z,102742.53
2023-04-04T02:31:14.020Z,102747.66
2023-04-04T02:34:16.703Z,102743.31
2023-04-04T02:37:19.389Z,102732.94
2023-04-04T02:40:21.989Z,102741.63
2023-04-04T02:43:25.946Z,102733.69
2023-04-04T02:46:28.594Z,102740.16
2023-04-04T02:49:31.712Z,102744.56
2023-04-04T02:52:34.301Z,102742.06
2023-04-04T02:55:36.904Z,102739.53
2023-04-04T02:58:41.663Z,102738.44
2023-04-04T03:01:45.953Z,102737.34
2023-04-04T03:04:48.570Z,102732.28
2023-04-04T03:07:56.118Z,102733.16
2023-04-04T03:10:58.873Z,102735.97
2023-04-04T03:14:02.987Z,102739.66
2023-04-04T03:17:06.274Z,102747.66
2023-04-04T03:20:09.552Z,102741.88
2023-04-04T03:23:12.159Z,102742.81
2023-04-04T03:26:15.193Z,102743.59
2023-04-04T03:29:19.158Z,102746.44
2023-04-04T03:32:21.732Z,102739.09
2023-04-04T03:35:24.341Z,102734.94
2023-04-04T03:38:27.277Z,102741.13
2023-04-04T03:41:29.841Z,102734.25
2023-04-04T03:44:33.771Z,102731.44
2023-04-04T03:47:36.392Z,102729.53
2023-04-04T03:50:39.184Z,102723.47
2023-04-04T03:53:41.880Z,102725.34
2023-04-04T03:56:44.782Z,102724.44
2023-04-04T03:59:48.701Z,102720.25
2023-04-04T04:02:51.437Z,102723.41
2023-04-04T04:05:55.250Z,102718.19
2023-04-04T04:08:58.319Z,102714.47
2023-04-04T04:12:01.482Z,102716.59
2023-04-04T04:15:05.999Z,102717.19
2023-04-04T04:18:08.575Z,102710.00
2023-04-04T04:21:11.158Z,102709.28
2023-04-04T04:24:13.759Z,102705.72
2023-04-04T04:27:16.458Z,102706.44
2023-04-04T04:30:20.398Z,102710.16
2023-04-04T04:33:30.317Z,102727.56
2023-04-04T04:36:33.166Z,102726.78
2023-04-04T04:39:36.363Z,102722.75
2023-04-04T04:42:44.858Z,102728.22
2023-04-04T04:45:48.840Z,102727.22
2023-04-04T04:48:51.760Z,102720.28
2023-04-04T04:51:54.646Z,102719.94
2023-04-04T04:54:57.311Z,102725.28
2023-04-04T04:57:59.901Z,102721.22
2023-04-04T05:01:03.933Z,102724.63
2023-04-04T05:04:06.552Z,102717.63
2023-04-04T05:07:09.153Z,102713.84
2023-04-04T05:10:12.119Z,102718.66
2023-04-04T05:13:14.971Z,102718.50
2023-04-04T05:16:20.484Z,102725.78
2023-04-04T05:19:23.235Z,102719.69
2023-04-04T05:22:26.209Z,102723.91
2023-04-04T05:25:28.955Z,102726.78
2023-04-04T05:28:31.694Z,102721.84
2023-04-04T05:31:35.664Z,102726.38
2023-04-04T05:34:38.264Z,102724.78
2023-04-04T05:37:41.316Z,102731.19
2023-04-04T05:40:45.318Z,102736.41
2023-04-04T05:43:47.939Z,102739.44
2023-04-04T05:46:51.905Z,102734.09
2023-04-04T05:49:54.477Z,102727.53
2023-04-04T05:52:57.307Z,102723.56
2023-04-04T05:56:00.866Z,102716.53
2023-04-04T05:59:03.508Z,102726.50
2023-04-04T06:02:08.205Z,102728.34
2023-04-04T06:05:11.094Z,102727.44
2023-04-04T06:08:13.687Z,102723.22
2023-04-04T06:11:16.278Z,102725.81
2023-04-04T06:14:18.839Z,102713.97
2023-04-04T06:17:22.950Z,102724.84
2023-04-04T06:20:25.681Z,102724.69
2023-04-04T06:23:28.264Z,102727.38
2023-04-04T06:26:30.845Z,102727.69
2023-04-04T06:29:34.154Z,102725.50
2023-04-04T06:32:38.633Z,102726.66
2023-04-04T06:35:41.302Z,102730.28
2023-04-04T06:38:43.936Z,102730.63
2023-04-04T06:41:47.913Z,102728.44
2023-04-04T06:44:50.520Z,102727.06
2023-04-04T06:47:54.593Z,102726.28
2023-04-04T06:50:57.249Z,102726.69
2023-04-04T06:54:01.134Z,102728.72
2023-04-04T06:57:04.667Z,102728.19
2023-04-04T07:00:09.171Z,102724.06
2023-04-04T07:03:13.229Z,102719.22
2023-04-04T07:06:16.060Z,102735.94
2023-04-04T07:09:28.206Z,102737.84
2023-04-04T07:12:33.114Z,102732.81
2023-04-04T07:15:35.689Z,102726.03
2023-04-04T07:18:39.633Z,102725.44
2023-04-04T07:21:42.192Z,102717.44
2023-04-04T07:24:44.985Z,102719.19
2023-04-04T07:27:47.932Z,102715.94
2023-04-04T07:30:50.530Z,102714.97
2023-04-04T07:33:54.755Z,102713.38
2023-04-04T07:36:57.345Z,102715.78
2023-04-04T07:39:59.966Z,102718.16
2023-04-04T07:43:02.563Z,102719.28
2023-04-04T07:46:05.412Z,102713.31
2023-04-04T07:49:09.466Z,102715.50
2023-04-04T07:52:12.081Z,102714.94
2023-04-04T07:55:16.281Z,102721.28
2023-04-04T07:58:19.478Z,102709.88
2023-04-04T08:01:22.055Z,102706.59
2023-04-04T08:04:26.170Z,102705.34
2023-04-04T08:07:30.394Z,102708.88
2023-04-04T08:10:33.108Z,102705.50
2023-04-04T08:13:35.965Z,102702.31
2023-04-04T08:16:38.540Z,102698.94
2023-04-04T08:19:42.504Z,102697.03
2023-04-04T08:22:45.095Z,102695.56
2023-04-04T08:25:47.837Z,102696.50
2023-04-04T08:28:51.269Z,102692.59
2023-04-04T08:31:54.192Z,102696.38
2023-04-04T08:34:58.193Z,102706.09
2023-04-04T08:38:02.543Z,102697.91
2023-04-04T08:41:05.239Z,102695.03
2023-04-04T08:44:10.522Z,102688.22
2023-04-04T08:47:14.518Z,102687.63
2023-04-04T08:50:20.211Z,102690.53
2023-04-04T08:53:22.819Z,102692.38
2023-04-04T08:56:26.442Z,102683.44
2023-04-04T08:59:29.215Z,102683.63
2023-04-04T09:02:38.411Z,102693.31
2023-04-04T09:05:44.587Z,102695.13
2023-04-04T09:08:48.258Z,102687.22
2023-04-04T09:11:52.745Z,102703.00
2023-04-04T09:14:57.644Z,102692.53
2023-04-04T09:18:00.263Z,102695.19
2023-04-04T09:21:10.621Z,102694.31
2023-04-04T09:24:13.217Z,102691.66
2023-04-04T09:27:17.102Z,102683.75
2023-04-04T09:30:20.123Z,102692.50
2023-04-04T09:33:25.025Z,102688.97
2023-04-04T09:36:29.551Z,102688.16
2023-04-04T09:39:33.367Z,102678.34
2023-04-04T09:42:36.598Z,102671.69
2023-04-04T09:45:42.000Z,102674.41
2023-04-04T09:48:50.538Z,102665.59
2023-04-04T09:51:55.707Z,102668.19
2023-04-04T09:54:59.118Z,102652.91
2023-04-04T09:58:12.807Z,102661.25
2023-04-04T10:01:15.768Z,102653.88
2023-04-04T10:04:19.703Z,102661.56
2023-04-04T10:07:23.841Z,102651.78
2023-04-04T10:10:31.285Z,102646.50
2023-04-04T10:13:36.107Z,102638.25
2023-04-04T10:16:39.140Z,102646.06
2023-04-04T10:19:42.002Z,102628.31
2023-04-04T10:22:47.301Z,102631.22
2023-04-04T10:25:50.337Z,102627.44
2023-04-04T10:28:53.325Z,102627.66
2023-04-04T10:32:03.443Z,102634.34
2023-04-04T10:35:10.834Z,102628.78
2023-04-04T10:38:15.332Z,102629.97
2023-04-04T10:41:19.303Z,102625.88
2023-04-04T10:44:25.990Z,102628.81
2023-04-04T10:47:30.259Z,102632.06
2023-04-04T10:50:34.716Z,102614.16
2023-04-04T10:53:40.296Z,102615.25
2023-04-04T10:56:43.586Z,102615.06
2023-04-04T10:59:59.420Z,102613.00
2023-04-04T11:03:03.031Z,102608.03
2023-04-04T11:06:15.532Z,102612.41
2023-04-04T11:09:51.718Z,102614.97
2023-04-04T11:13:05.686Z,102603.38
2023-04-04T11:16:15.768Z,102606.28
2023-04-04T11:19:18.548Z,102594.81
2023-04-04T11:22:23.663Z,102589.84
2023-04-04T11:25:36.161Z,102587.53
2023-04-04T11:28:46.548Z,102582.28
2023-04-04T11:31:51.782Z,102576.19
2023-04-04T11:34:54.421Z,102572.34
2023-04-04T11:38:01.905Z,102569.03
2023-04-04T11:41:07.859Z,102573.97
2023-04-04T11:44:11.785Z,102567.09
2023-04-04T11:47:14.479Z,102561.88
2023-04-04T11:50:17.489Z,102566.13
2023-04-04T11:53:20.575Z,102562.94
2023-04-04T11:56:24.899Z,102558.09
2023-04-04T11:59:27.724Z,102552.66
2023-04-04T12:02:34.174Z,102552.91
2023-04-04T12:05:37.261Z,102547.22
2023-04-04T12:08:40.806Z,102544.22
2023-04-04T12:11:46.119Z,102539.63
2023-04-04T12:14:49.138Z,102539.09
2023-04-04T12:17:52.194Z,102530.66
2023-04-04T12:20:57.602Z,102535.75
2023-04-04T12:24:00.243Z,102528.66
2023-04-04T12:27:04.932Z,102530.53
2023-04-04T12:30:15.451Z,102529.44
2023-04-04T12:33:18.120Z,102528.63
2023-04-04T12:36:21.203Z,102518.69
2023-04-04T12:39:27.513Z,102513.53
2023-04-04T12:42:32.508Z,102510.59
2023-04-04T12:45:40.549Z,102506.53
2023-04-04T12:48:44.650Z,102514.44
2023-04-04T12:51:47.334Z,102502.53
2023-04-04T12:55:04.785Z,102494.63
2023-04-04T12:58:12.134Z,102490.25
2023-04-04T13:01:16.593Z,102493.41
2023-04-04T13:04:20.101Z,102488.41
2023-04-04T13:07:26.376Z,102484.75
2023-04-04T13:10:29.311Z,102483.78
2023-04-04T13:13:38.555Z,102476.16
2023-04-04T13:16:41.807Z,102470.63
2023-04-04T13:19:44.502Z,102465.44
2023-04-04T13:22:47.133Z,102455.03
2023-04-04T13:25:49.986Z,102460.47
2023-04-04T13:28:53.957Z,102454.69
2023-04-04T13:31:57.072Z,102446.41
2023-04-04T13:34:59.669Z,102449.19
2023-04-04T13:38:02.340Z,102443.59
2023-04-04T13:41:05.202Z,102438.91
2023-04-04T13:44:09.174Z,102436.94
2023-04-04T13:47:11.787Z,102432.47
2023-04-04T13:50:14.371Z,102436.94
2023-04-04T13:53:16.980Z,102423.63
2023-04-04T13:56:20.023Z,102421.56
2023-04-04T13:59:24.259Z,102422.72
2023-04-04T14:02:26.966Z,102413.53
2023-04-04T14:05:29.654Z,102413.50
2023-04-04T14:08:33.855Z,102412.50
2023-04-04T14:11:37.569Z,102410.34
2023-04-04T14:14:41.595Z,102404.38
2023-04-04T14:17:44.246Z,102396.94
2023-04-04T14:20:47.495Z,102393.22
2023-04-04T14:23:50.068Z,102391.78
2023-04-04T14:26:52.640Z,102384.00
2023-04-04T14:29:56.563Z,102392.31
2023-04-04T14:32:59.158Z,102389.06
2023-04-04T14:36:01.734Z,102382.03
2023-04-04T14:39:04.478Z,102384.59
2023-04-04T14:42:07.195Z,102379.56
2023-04-04T14:45:12.434Z,102373.59
2023-04-04T14:48:15.013Z,102369.13
2023-04-04T14:51:19.523Z,102363.94
2023-04-04T14:54:22.263Z,102359.47
2023-04-04T14:57:25.011Z,102354.97
2023-04-04T15:00:29.245Z,102354.41
2023-04-04T15:03:32.407Z,102360.59
2023-04-04T15:06:37.796Z,102352.63
2023-04-04T15:09:40.434Z,102350.06
2023-04-04T15:12:43.018Z,102351.69
2023-04-04T15:15:47.237Z,102350.50
2023-04-04T15:18:49.844Z,102356.88
2023-04-04T15:21:53.201Z,102351.53
2023-04-04T15:24:56.378Z,102351.22
2023-04-04T15:28:00.749Z,102347.41
2023-04-04T15:31:04.962Z,102349.53
2023-04-04T15:34:07.763Z,102350.97
2023-04-04T15:37:10.418Z,102341.97
2023-04-04T15:40:13.351Z,102336.56
2023-04-04T15:43:16.370Z,102327.63
2023-04-04T15:46:20.347Z,102329.81
2023-04-04T15:49:22.928Z,102329.75
2023-04-04T15:52:26.419Z,102319.19
2023-04-04T15:55:29.228Z,102325.38
2023-04-04T15:58:31.788Z,102320.84
2023-04-04T16:01:36.443Z,102320.19
2023-04-04T16:04:39.096Z,102323.06
2023-04-04T16:07:41.675Z,102323.97
2023-04-04T16:10:44.646Z,102321.75
2023-04-04T16:13:47.262Z,102328.97
2023-04-04T16:16:51.239Z,102322.97
2023-04-04T16:19:53.836Z,102326.09
2023-04-04T16:22:56.396Z,102327.56
2023-04-04T16:25:58.940Z,102316.06
2023-04-04T16:29:03.103Z,102323.19
2023-04-04T16:32:08.133Z,102320.50
2023-04-04T16:35:10.986Z,102317.84
2023-04-04T16:38:13.596Z,102316.03
2023-04-04T16:41:17.357Z,102314.19
2023-04-04T16:44:19.957Z,102305.56
2023-04-04T16:47:25.119Z,102303.81
2023-04-04T16:50:28.617Z,102301.94
2023-04-04T16:53:31.229Z,102313.69
2023-04-04T16:56:33.816Z,102304.16
2023-04-04T16:59:37.678Z,102304.84
2023-04-04T17:02:45.466Z,102301.34
2023-04-04T17:05:48.858Z,102303.00
2023-04-04T17:08:51.487Z,102303.56
2023-04-04T17:11:54.082Z,102299.75
2023-04-04T17:14:56.687Z,102298.81
2023-04-04T17:18:01.370Z,102293.53
2023-04-04T17:21:04.175Z,102297.13
2023-04-04T17:24:06.996Z,102294.47
2023-04-04T17:27:09.759Z,102293.75
2023-04-04T17:30:13.670Z,102293.81
2023-04-04T17:33:17.610Z,102293.94
2023-04-04T17:36:20.252Z,102290.38
2023-04-04T17:39:22.851Z,102296.66
2023-04-04T17:42:25.591Z,102295.84
2023-04-04T17:45:29.427Z,102292.28
2023-04-04T17:48:36.577Z,102294.16
2023-04-04T17:51:39.205Z,102294.19
2023-04-04T17:54:42.193Z,102296.84
2023-04-04T17:57:45.375Z,102296.09
2023-04-04T18:00:48.240Z,102294.41
2023-04-04T18:03:52.314Z,102291.78
2023-04-04T18:06:55.063Z,102292.72
2023-04-04T18:09:57.654Z,102295.44
2023-04-04T18:13:01.239Z,102292.81
2023-04-04T18:16:07.176Z,102299.88
2023-04-04T18:19:11.586Z,102298.16
2023-04-04T18:22:14.541Z,102302.59
2023-04-04T18:25:18.577Z,102307.88
2023-04-04T18:28:21.169Z,102311.41
2023-04-04T18:31:24.025Z,102311.44
2023-04-04T18:34:28.083Z,102304.41
2023-04-04T18:37:30.848Z,102310.56
2023-04-04T18:40:33.430Z,102306.19
2023-04-04T18:43:37.151Z,102303.56
2023-04-04T18:46:40.359Z,102303.56
2023-04-04T18:49:44.343Z,102308.84
2023-04-04T18:52:46.923Z,102311.47
2023-04-04T18:55:49.786Z,102303.56
2023-04-04T18:58:52.405Z,102307.09
2023-04-04T19:01:56.326Z,102299.19
2023-04-04T19:05:00.814Z,102309.72
2023-04-04T19:08:04.273Z,102307.94
2023-04-04T19:11:07.472Z,102315.81
2023-04-04T19:14:10.115Z,102313.19
2023-04-04T19:17:15.394Z,102318.34
2023-04-04T19:20:19.705Z,102321.00
2023-04-04T19:23:22.313Z,102317.50
2023-04-04T19:26:24.941Z,102312.19
2023-04-04T19:29:27.502Z,102320.06
2023-04-04T19:32:31.516Z,102317.47
2023-04-04T19:35:55.509Z,102311.25
2023-04-04T19:38:58.120Z,102312.13
2023-04-04T19:42:01.460Z,102312.13
2023-04-04T19:45:13.900Z,102306.84
2023-04-04T19:48:45.058Z,102300.63
2023-04-04T19:51:53.438Z,102311.09
2023-04-04T19:54:56.051Z,102302.25
2023-04-04T19:57:58.619Z,102299.63
2023-04-04T20:01:01.329Z,102301.38
2023-04-04T20:04:08.603Z,102303.09
2023-04-04T20:07:12.759Z,102297.81
2023-04-04T20:10:37.438Z,102305.66
2023-04-04T20:13:41.315Z,102307.34
2023-04-04T20:16:44.077Z,102299.47
2023-04-04T20:19:46.836Z,102297.63
2023-04-04T20:22:52.432Z,102301.22
2023-04-04T20:25:56.135Z,102296.66
2023-04-04T20:28:58.722Z,102307.13
2023-04-04T20:32:02.438Z,102298.22
2023-04-04T20:35:07.543Z,102302.59
2023-04-04T20:38:21.651Z,102312.25
2023-04-04T20:41:26.268Z,102310.38
2023-04-04T20:44:28.941Z,102317.41
2023-04-04T20:47:43.075Z,102314.81
2023-04-04T20:50:47.088Z,102317.38
2023-04-04T20:53:52.175Z,102320.72
2023-04-04T20:56:56.456Z,102314.53
2023-04-04T20:59:59.058Z,102311.81
2023-04-04T21:03:03.539Z,102310.97
2023-04-04T21:06:14.733Z,102309.13
2023-04-04T21:09:18.718Z,102302.19
2023-04-04T21:12:22.891Z,102296.94
2023-04-04T21:15:28.404Z,102299.56
2023-04-04T21:18:32.724Z,102303.84
2023-04-04T21:21:37.051Z,102288.06
2023-04-04T21:24:41.270Z,102295.00
2023-04-04T21:27:43.843Z,102289.75
2023-04-04T21:30:47.397Z,102290.44
2023-04-04T21:33:53.218Z,102297.44
2023-04-04T21:36:57.110Z,102297.31
2023-04-04T21:40:01.658Z,102291.09
2023-04-04T21:43:04.242Z,102297.34
2023-04-04T21:46:06.855Z,102289.34
2023-04-04T21:49:09.963Z,102291.09
2023-04-04T21:52:12.614Z,102289.34
2023-04-04T21:55:16.570Z,102287.53
2023-04-04T21:58:19.180Z,102285.72
2023-04-04T22:01:22.136Z,102277.75
2023-04-04T22:04:24.773Z,102284.63
2023-04-04T22:07:27.606Z,102281.16
2023-04-04T22:10:32.935Z,102274.09
2023-04-04T22:13:42.765Z,102266.31
2023-04-04T22:16:45.718Z,102267.22
2023-04-04T22:19:58.731Z,102264.34
2023-04-04T22:23:05.110Z,102263.47
2023-04-04T22:26:10.884Z,102271.34
2023-04-04T22:29:13.468Z,102263.53
2023-04-04T22:32:16.138Z,102263.53
2023-04-04T22:35:18.704Z,102262.44
2023-04-04T22:38:21.487Z,102258.06
2023-04-04T22:41:28.703Z,102258.25
2023-04-04T22:44:31.520Z,102255.19
2023-04-04T22:47:34.115Z,102247.34
2023-04-04T22:50:36.734Z,102257.88
2023-04-04T22:53:39.295Z,102252.75
2023-04-04T22:56:43.341Z,102255.13
2023-04-04T22:59:46.067Z,102254.22
2023-04-04T23:02:51.229Z,102249.03
2023-04-04T23:05:53.863Z,102250.72
2023-04-04T23:08:56.420Z,102246.44
2023-04-04T23:12:01.251Z,102241.94
2023-04-04T23:15:04.681Z,102244.59
2023-04-04T23:18:08.154Z,102240.00
2023-04-04T23:21:10.846Z,102240.97
2023-04-04T23:24:13.417Z,102235.78
2023-04-04T23:27:17.405Z,102243.50
2023-04-04T23:30:20.609Z,102231.25
2023-04-04T23:33:23.195Z,102232.84
2023-04-04T23:36:25.852Z,102233.66
2023-04-04T23:39:28.606Z,102237.75
2023-04-04T23:42:32.568Z,102234.63
2023-04-04T23:45:38.148Z,102247.66
2023-04-04T23:48:41.123Z,102247.75
2023-04-04T23:51:44.764Z,102242.34
2023-04-04T23:54:47.434Z,102237.13
2023-04-04T23:57:51.350Z,102245.63
